Rosetown, Canada
Current Conditions -  °F | °C
As of 9:00 AM on Wednesday 26 Nov 2014 (Local Time) from CYKY Reporting Station
Overcast Overcast  
Wind Chill: -2°   Ceiling: 2000
Heat Index: 10°   Visibility: 15mi
Dew Point:   Wind: 8mph
Humidity: 85%   Direction: 140°SE
Pressure: 30.25"   Gusts: NA
Location:  51.55°N, 107.99°W
Report Text: CYKY 261500Z 14007KT 15SM OVC020 M12/M14 A3025 RMK SC8 SLP297
Loading
Personal Weather Stations






























Interactive Weather Map New forecast layout! Learn more

10-Day Weather Forecast

Advertisements
Track Severe Weather on mobile